createdAt,value
2022-12-12T00:01:04.682Z,10.30
2022-12-12T00:03:33.031Z,8.32
2022-12-12T00:06:03.322Z,9.60
2022-12-12T00:08:31.450Z,10.32
2022-12-12T00:10:59.574Z,9.27
2022-12-12T00:13:27.631Z,10.18
2022-12-12T00:15:55.799Z,10.45
2022-12-12T00:18:25.227Z,9.65
2022-12-12T00:20:53.738Z,9.35
2022-12-12T00:23:21.769Z,10.75
2022-12-12T00:25:55.830Z,10.05
2022-12-12T00:28:23.966Z,10.48
2022-12-12T00:30:52.137Z,9.15
2022-12-12T00:33:20.787Z,10.27
2022-12-12T00:35:53.035Z,9.18
2022-12-12T00:38:22.528Z,9.30
2022-12-12T00:40:51.669Z,10.30
2022-12-12T00:43:19.691Z,10.25
2022-12-12T00:45:47.862Z,9.32
2022-12-12T00:48:15.903Z,9.57
2022-12-12T00:50:44.652Z,10.57
2022-12-12T00:53:14.715Z,10.77
2022-12-12T00:55:43.121Z,10.50
2022-12-12T00:58:11.579Z,11.80
2022-12-12T01:00:41.324Z,10.70
2022-12-12T01:03:09.678Z,11.60
2022-12-12T01:05:37.709Z,11.20
2022-12-12T01:08:05.918Z,10.65
2022-12-12T01:10:35.718Z,11.50
2022-12-12T01:13:04.712Z,11.73
2022-12-12T01:15:32.866Z,11.38
2022-12-12T01:18:02.131Z,12.35
2022-12-12T01:20:30.379Z,10.48
2022-12-12T01:22:58.463Z,12.63
2022-12-12T01:25:26.945Z,11.40
2022-12-12T01:27:56.534Z,11.38
2022-12-12T01:30:49.131Z,10.02
2022-12-12T01:33:17.289Z,11.48
2022-12-12T01:35:46.030Z,11.60
2022-12-12T01:38:14.121Z,11.50
2022-12-12T01:40:42.143Z,10.70
2022-12-12T01:43:14.449Z,9.82
2022-12-12T01:46:33.001Z,9.65
2022-12-12T01:49:04.807Z,10.52
2022-12-12T01:51:33.930Z,9.48
2022-12-12T01:54:07.700Z,9.85
2022-12-12T01:56:37.472Z,11.00
2022-12-12T01:59:10.189Z,10.23
2022-12-12T02:01:39.070Z,9.13
2022-12-12T02:04:09.456Z,8.88
2022-12-12T02:06:37.888Z,9.32
2022-12-12T02:09:10.347Z,9.45
2022-12-12T02:11:44.937Z,9.70
2022-12-12T02:14:15.980Z,9.45
2022-12-12T02:17:09.252Z,10.25
2022-12-12T02:20:27.324Z,8.63
2022-12-12T02:23:30.225Z,8.40
2022-12-12T02:26:17.732Z,8.80
2022-12-12T02:29:10.139Z,8.00
2022-12-12T02:31:44.186Z,8.82
2022-12-12T02:34:19.785Z,8.95
2022-12-12T02:36:58.055Z,8.80
2022-12-12T02:39:33.256Z,7.47
2022-12-12T02:42:06.759Z,9.25
2022-12-12T02:44:39.975Z,9.00
2022-12-12T02:47:13.632Z,9.77
2022-12-12T02:49:47.444Z,10.45
2022-12-12T02:52:17.313Z,11.27
2022-12-12T02:54:45.501Z,10.82
2022-12-12T02:57:16.534Z,10.80
2022-12-12T02:59:54.226Z,10.75
2022-12-12T03:03:28.418Z,9.80
2022-12-12T03:06:29.997Z,10.55
2022-12-12T03:09:08.771Z,9.98
2022-12-12T03:11:51.507Z,11.13
2022-12-12T03:14:27.294Z,11.18
2022-12-12T03:17:04.593Z,12.18
2022-12-12T03:19:40.451Z,10.95
2022-12-12T03:22:17.855Z,11.65
2022-12-12T03:24:52.005Z,12.05
2022-12-12T03:27:24.790Z,10.75
2022-12-12T03:29:56.882Z,11.57
2022-12-12T03:32:29.768Z,12.18
2022-12-12T03:35:01.311Z,11.57
2022-12-12T03:37:34.557Z,11.60
2022-12-12T03:40:08.977Z,10.88
2022-12-12T03:42:40.806Z,11.27
2022-12-12T03:45:15.017Z,9.80
2022-12-12T03:47:51.865Z,10.68
2022-12-12T03:50:22.562Z,9.30
2022-12-12T03:52:57.848Z,10.70
2022-12-12T03:55:31.870Z,11.50
2022-12-12T03:58:04.161Z,10.10
2022-12-12T04:00:37.199Z,10.25
2022-12-12T04:03:15.796Z,9.82
2022-12-12T04:06:02.195Z,11.65
2022-12-12T04:08:32.175Z,10.05
2022-12-12T04:11:24.048Z,11.02
2022-12-12T04:14:05.421Z,10.02
2022-12-12T04:16:37.268Z,12.38
2022-12-12T04:19:12.317Z,11.32
2022-12-12T04:22:07.756Z,10.50
2022-12-12T04:24:44.884Z,10.15
2022-12-12T04:27:19.488Z,10.40
2022-12-12T04:29:53.035Z,11.70
2022-12-12T04:32:25.971Z,12.82
2022-12-12T04:35:04.387Z,12.52
2022-12-12T04:37:37.108Z,10.45
2022-12-12T04:40:10.100Z,12.00
2022-12-12T04:42:43.216Z,12.48
2022-12-12T04:45:16.243Z,12.55
2022-12-12T04:47:48.177Z,12.48
2022-12-12T04:50:18.514Z,12.35
2022-12-12T04:52:50.031Z,12.00
2022-12-12T04:55:24.444Z,11.20
2022-12-12T04:57:54.765Z,11.32
2022-12-12T05:00:24.278Z,11.75
2022-12-12T05:02:58.704Z,11.75
2022-12-12T05:05:29.387Z,10.85
2022-12-12T05:08:04.028Z,11.38
2022-12-12T05:10:34.085Z,11.65
2022-12-12T05:13:03.391Z,11.90
2022-12-12T05:15:31.579Z,10.85
2022-12-12T05:18:03.936Z,10.40
2022-12-12T05:20:32.542Z,10.27
2022-12-12T05:23:00.911Z,12.73
2022-12-12T05:25:32.320Z,11.40
2022-12-12T05:28:02.138Z,9.88
2022-12-12T05:30:30.401Z,11.13
2022-12-12T05:32:58.504Z,10.00
2022-12-12T05:35:28.022Z,9.48
2022-12-12T05:37:56.542Z,9.50
2022-12-12T05:40:24.847Z,9.13
2022-12-12T05:42:53.803Z,7.65
2022-12-12T05:45:23.237Z,9.02
2022-12-12T05:47:52.583Z,9.20
2022-12-12T05:50:20.663Z,8.75
2022-12-12T05:52:49.499Z,9.00
2022-12-12T05:55:17.595Z,8.70
2022-12-12T05:57:45.677Z,8.65
2022-12-12T06:00:14.536Z,9.07
2022-12-12T06:02:43.994Z,9.05
2022-12-12T06:05:12.377Z,8.70
2022-12-12T06:07:40.654Z,8.27
2022-12-12T06:10:09.822Z,8.45
2022-12-12T06:12:37.941Z,9.00
2022-12-12T06:15:06.798Z,8.82
2022-12-12T06:17:34.903Z,9.20
2022-12-12T06:20:05.322Z,9.48
2022-12-12T06:22:34.896Z,9.40
2022-12-12T06:25:03.005Z,24.30
2022-12-12T06:27:30.981Z,12.10
2022-12-12T06:29:59.038Z,11.05
2022-12-12T06:32:27.083Z,10.68
2022-12-12T06:34:55.079Z,9.13
2022-12-12T06:37:24.591Z,9.77
2022-12-12T06:39:52.789Z,9.85
2022-12-12T06:42:20.964Z,9.35
2022-12-12T06:44:48.949Z,9.40
2022-12-12T06:47:17.090Z,9.30
2022-12-12T06:49:45.103Z,11.32
2022-12-12T06:52:13.217Z,8.98
2022-12-12T06:54:42.618Z,9.07
2022-12-12T06:57:10.701Z,8.55
2022-12-12T06:59:38.753Z,8.43
2022-12-12T07:02:07.523Z,9.30
2022-12-12T07:04:35.545Z,8.90
2022-12-12T07:07:03.678Z,8.50
2022-12-12T07:09:31.639Z,8.70
2022-12-12T07:12:01.537Z,9.40
2022-12-12T07:14:29.552Z,9.15
2022-12-12T07:16:57.995Z,9.88
2022-12-12T07:19:26.513Z,9.38
2022-12-12T07:21:54.505Z,9.80
2022-12-12T07:24:22.614Z,9.02
2022-12-12T07:26:50.731Z,10.63
2022-12-12T07:29:20.109Z,8.68
2022-12-12T07:31:51.587Z,10.35
2022-12-12T07:34:19.608Z,10.13
2022-12-12T07:36:47.669Z,9.13
2022-12-12T07:39:20.779Z,23.80
2022-12-12T07:41:49.423Z,32.30
2022-12-12T07:44:23.727Z,26.80
2022-12-12T07:46:51.793Z,23.70
2022-12-12T07:49:19.812Z,18.05
2022-12-12T07:51:49.460Z,19.70
2022-12-12T07:54:18.133Z,13.30
2022-12-12T07:56:46.195Z,12.23
2022-12-12T07:59:14.374Z,10.27
2022-12-12T08:01:43.888Z,10.02
2022-12-12T08:04:11.967Z,8.90
2022-12-12T08:06:40.126Z,9.40
2022-12-12T08:09:08.230Z,9.32
2022-12-12T08:11:36.403Z,9.98
2022-12-12T08:14:12.887Z,9.57
2022-12-12T08:16:42.769Z,10.35
2022-12-12T08:19:10.770Z,11.75
2022-12-12T08:21:38.899Z,23.35
2022-12-12T08:24:07.572Z,9.25
2022-12-12T08:26:35.698Z,9.75
2022-12-12T08:29:03.707Z,10.32
2022-12-12T08:31:32.441Z,8.90
2022-12-12T08:34:02.657Z,9.75
2022-12-12T08:36:32.788Z,9.45
2022-12-12T08:39:05.627Z,9.27
2022-12-12T08:41:34.753Z,10.13
2022-12-12T08:44:02.924Z,9.45
2022-12-12T08:46:31.314Z,10.75
2022-12-12T08:48:59.324Z,8.77
2022-12-12T08:51:28.821Z,8.23
2022-12-12T08:53:56.820Z,8.10
2022-12-12T08:56:25.677Z,9.10
2022-12-12T08:58:53.890Z,8.77
2022-12-12T09:01:23.834Z,8.77
2022-12-12T09:03:53.264Z,8.73
2022-12-12T09:06:22.259Z,10.15
2022-12-12T09:08:51.904Z,8.82
2022-12-12T09:11:20.594Z,8.68
2022-12-12T09:13:48.602Z,8.07
2022-12-12T09:16:16.996Z,8.63
2022-12-12T09:18:49.055Z,7.88
2022-12-12T09:21:17.969Z,9.80
2022-12-12T09:23:46.129Z,9.50
2022-12-12T09:26:15.981Z,9.77
2022-12-12T09:28:43.983Z,9.07
2022-12-12T09:31:13.591Z,9.30
2022-12-12T09:33:42.882Z,9.00
2022-12-12T09:36:11.875Z,8.15
2022-12-12T09:38:39.953Z,8.52
2022-12-12T09:41:16.280Z,7.82
2022-12-12T09:43:51.453Z,8.40
2022-12-12T09:46:29.476Z,7.63
2022-12-12T09:49:03.848Z,7.50
2022-12-12T09:51:32.114Z,8.20
2022-12-12T09:54:00.112Z,7.90
2022-12-12T09:56:37.274Z,8.13
2022-12-12T09:59:10.488Z,7.85
2022-12-12T10:01:41.607Z,7.50
2022-12-12T10:04:17.312Z,7.97
2022-12-12T10:06:50.291Z,9.65
2022-12-12T10:09:34.034Z,8.93
2022-12-12T10:12:08.400Z,7.72
2022-12-12T10:14:41.850Z,7.55
2022-12-12T10:17:15.384Z,8.52
2022-12-12T10:19:48.993Z,7.20
2022-12-12T10:22:24.804Z,8.65
2022-12-12T10:24:57.013Z,8.00
2022-12-12T10:27:26.489Z,7.63
2022-12-12T10:29:55.949Z,8.82
2022-12-12T10:32:38.067Z,8.82
2022-12-12T10:35:21.305Z,8.70
2022-12-12T10:38:07.192Z,8.15
2022-12-12T10:40:48.013Z,6.97
2022-12-12T10:43:22.437Z,7.20
2022-12-12T10:46:17.725Z,8.13
2022-12-12T10:48:48.858Z,7.50
2022-12-12T10:51:20.666Z,8.77
2022-12-12T10:53:48.864Z,6.35
2022-12-12T10:56:22.017Z,7.28
2022-12-12T10:58:56.478Z,8.13
2022-12-12T11:01:52.466Z,6.88
2022-12-12T11:04:16.754Z,6.50
2022-12-12T11:06:47.944Z,5.85
2022-12-12T11:09:20.877Z,5.68
2022-12-12T11:11:59.955Z,7.00
2022-12-12T11:14:34.909Z,7.15
2022-12-12T11:17:03.591Z,6.00
2022-12-12T11:19:39.530Z,6.63
2022-12-12T11:22:07.759Z,6.75
2022-12-12T11:24:45.070Z,7.60
2022-12-12T11:27:21.832Z,7.32
2022-12-12T11:29:53.638Z,6.80
2022-12-12T11:32:25.352Z,7.43
2022-12-12T11:34:56.812Z,7.15
2022-12-12T11:37:29.351Z,12.82
2022-12-12T11:39:58.549Z,7.10
2022-12-12T11:42:29.267Z,8.68
2022-12-12T11:45:04.763Z,8.20
2022-12-12T11:47:40.695Z,9.07
2022-12-12T11:50:21.402Z,9.85
2022-12-12T11:52:50.656Z,8.25
2022-12-12T11:55:30.252Z,8.18
2022-12-12T11:58:13.276Z,8.45
2022-12-12T12:00:52.571Z,9.00
2022-12-12T12:03:41.412Z,8.05
2022-12-12T12:06:23.958Z,10.25
2022-12-12T12:09:23.319Z,9.70
2022-12-12T12:11:58.516Z,8.75
2022-12-12T12:14:52.335Z,13.98
2022-12-12T12:17:29.560Z,58.78
2022-12-12T12:20:06.474Z,9.07
2022-12-12T12:22:45.625Z,9.88
2022-12-12T12:25:31.188Z,9.63
2022-12-12T12:28:10.719Z,9.20
2022-12-12T12:30:51.606Z,8.77
2022-12-12T12:33:41.844Z,8.73
2022-12-12T12:36:21.094Z,9.10
2022-12-12T12:39:05.672Z,7.25
2022-12-12T12:41:48.459Z,7.85
2022-12-12T12:44:31.506Z,8.05
2022-12-12T12:47:06.504Z,8.05
2022-12-12T12:49:40.964Z,8.23
2022-12-12T12:52:13.600Z,9.40
2022-12-12T12:54:43.526Z,9.35
2022-12-12T12:57:15.869Z,9.35
2022-12-12T12:59:49.302Z,9.57
2022-12-12T13:02:27.295Z,9.20
2022-12-12T13:05:07.229Z,6.57
2022-12-12T13:07:46.808Z,7.00
2022-12-12T13:10:21.871Z,7.40
2022-12-12T13:12:55.005Z,7.50
2022-12-12T13:15:26.951Z,7.10
2022-12-12T13:18:01.511Z,9.07
2022-12-12T13:20:34.824Z,7.20
2022-12-12T13:23:21.062Z,8.15
2022-12-12T13:25:57.905Z,7.38
2022-12-12T13:28:30.510Z,7.10
2022-12-12T13:31:27.718Z,7.22
2022-12-12T13:33:58.476Z,7.50
2022-12-12T13:36:32.983Z,7.28
2022-12-12T13:39:03.657Z,7.95
2022-12-12T13:41:57.123Z,7.63
2022-12-12T13:44:46.873Z,6.70
2022-12-12T13:47:48.301Z,7.20
2022-12-12T13:50:23.362Z,7.38
2022-12-12T13:53:21.178Z,7.25
2022-12-12T13:55:50.553Z,8.05
2022-12-12T13:58:35.576Z,6.80
2022-12-12T14:01:33.871Z,8.25
2022-12-12T14:04:03.483Z,5.95
2022-12-12T14:06:32.122Z,7.22
2022-12-12T14:09:00.365Z,6.75
2022-12-12T14:11:34.093Z,10.02
2022-12-12T14:14:19.780Z,7.35
2022-12-12T14:16:54.272Z,6.90
2022-12-12T14:19:29.847Z,7.45
2022-12-12T14:21:58.010Z,7.65
2022-12-12T14:24:54.580Z,7.15
2022-12-12T14:27:55.850Z,9.63
2022-12-12T14:30:32.348Z,7.13
2022-12-12T14:34:00.883Z,6.88
2022-12-12T14:37:10.173Z,6.68
2022-12-12T14:40:00.434Z,6.93
2022-12-12T14:43:21.116Z,6.80
2022-12-12T14:45:36.670Z,6.88
2022-12-12T14:48:25.153Z,5.88
2022-12-12T14:51:01.898Z,7.20
2022-12-12T14:53:34.605Z,7.45
2022-12-12T14:56:05.084Z,7.35
2022-12-12T14:58:37.564Z,6.82
2022-12-12T15:01:08.064Z,6.55
2022-12-12T15:03:40.140Z,6.75
2022-12-12T15:06:36.971Z,7.50
2022-12-12T15:09:29.109Z,9.13
2022-12-12T15:12:13.254Z,6.50
2022-12-12T15:14:52.649Z,7.00
2022-12-12T15:17:25.297Z,6.47
2022-12-12T15:19:56.584Z,6.75
2022-12-12T15:22:27.203Z,7.38
2022-12-12T15:24:56.479Z,7.65
2022-12-12T15:27:31.962Z,6.65
2022-12-12T15:30:01.736Z,6.95
2022-12-12T15:32:31.534Z,7.18
2022-12-12T15:35:07.257Z,8.60
2022-12-12T15:37:36.733Z,9.82
2022-12-12T15:40:19.991Z,7.40
2022-12-12T15:42:52.541Z,7.70
2022-12-12T15:45:26.581Z,7.43
2022-12-12T15:47:57.293Z,9.70
2022-12-12T15:50:28.426Z,8.27
2022-12-12T15:53:03.714Z,12.60
2022-12-12T15:55:32.977Z,8.32
2022-12-12T15:58:01.177Z,9.50
2022-12-12T16:00:33.926Z,13.23
2022-12-12T16:03:06.444Z,22.48
2022-12-12T16:05:36.864Z,17.17
2022-12-12T16:08:31.427Z,16.35
2022-12-12T16:11:01.869Z,19.13
2022-12-12T16:13:36.975Z,19.48
2022-12-12T16:16:34.819Z,14.05
2022-12-12T16:19:05.575Z,12.25
2022-12-12T16:21:36.603Z,14.32
2022-12-12T16:24:13.425Z,14.98
2022-12-12T16:26:41.411Z,14.15
2022-12-12T16:29:09.360Z,13.05
2022-12-12T16:31:37.960Z,11.68
2022-12-12T16:34:07.418Z,11.77
2022-12-12T16:36:41.716Z,15.57
2022-12-12T16:39:13.714Z,17.08
2022-12-12T16:41:42.157Z,13.43
2022-12-12T16:44:10.159Z,14.25
2022-12-12T16:46:38.266Z,16.10
2022-12-12T16:49:15.110Z,12.38
2022-12-12T16:51:43.605Z,10.95
2022-12-12T16:54:16.825Z,21.92
2022-12-12T16:56:50.436Z,14.07
2022-12-12T16:59:18.524Z,12.30
2022-12-12T17:01:46.873Z,18.50
2022-12-12T17:04:22.063Z,19.60
2022-12-12T17:06:50.685Z,22.80
2022-12-12T17:09:19.270Z,22.67
2022-12-12T17:11:48.007Z,22.05
2022-12-12T17:14:21.004Z,22.98
2022-12-12T17:16:49.274Z,19.25
2022-12-12T17:19:18.755Z,20.25
2022-12-12T17:21:47.076Z,24.48
2022-12-12T17:24:16.407Z,21.08
2022-12-12T17:26:44.466Z,20.63
2022-12-12T17:29:12.571Z,19.45
2022-12-12T17:31:41.305Z,22.20
2022-12-12T17:34:09.292Z,17.35
2022-12-12T17:36:38.671Z,23.15
2022-12-12T17:39:06.718Z,27.15
2022-12-12T17:41:34.756Z,22.83
2022-12-12T17:44:02.751Z,20.35
2022-12-12T17:46:30.742Z,19.67
2022-12-12T17:48:59.705Z,18.38
2022-12-12T17:51:27.784Z,16.15
2022-12-12T17:53:59.715Z,16.92
2022-12-12T17:56:28.247Z,18.35
2022-12-12T17:58:56.946Z,19.88
2022-12-12T18:01:29.251Z,20.08
2022-12-12T18:03:57.543Z,18.77
2022-12-12T18:06:27.307Z,16.38
2022-12-12T18:08:58.147Z,18.80
2022-12-12T18:11:28.021Z,15.70
2022-12-12T18:13:57.757Z,16.60
2022-12-12T18:16:27.402Z,20.60
2022-12-12T18:18:57.243Z,19.90
2022-12-12T18:21:59.244Z,14.32
2022-12-12T18:24:19.117Z,14.20
2022-12-12T18:26:47.913Z,12.70
2022-12-12T18:29:15.908Z,12.93
2022-12-12T18:31:44.245Z,13.65
2022-12-12T18:34:12.383Z,13.45
2022-12-12T18:36:40.854Z,13.52
2022-12-12T18:39:09.581Z,13.60
2022-12-12T18:41:39.535Z,11.93
2022-12-12T18:44:11.742Z,11.45
2022-12-12T18:46:43.148Z,12.60
2022-12-12T18:49:15.264Z,12.27
2022-12-12T18:51:44.543Z,12.23
2022-12-12T18:54:16.099Z,11.60
2022-12-12T18:56:47.248Z,11.98
2022-12-12T18:59:16.461Z,12.10
2022-12-12T19:01:48.010Z,12.48
2022-12-12T19:04:22.821Z,14.15
2022-12-12T19:06:53.335Z,12.52
2022-12-12T19:09:22.283Z,11.75
2022-12-12T19:11:58.335Z,12.55
2022-12-12T19:14:45.758Z,12.50
2022-12-12T19:17:23.581Z,13.20
2022-12-12T19:19:54.040Z,11.93
2022-12-12T19:25:42.547Z,14.10
2022-12-12T19:28:12.544Z,12.38
2022-12-12T19:30:41.302Z,15.27
2022-12-12T19:33:09.521Z,13.75
2022-12-12T19:35:38.253Z,13.32
2022-12-12T19:38:06.351Z,14.07
2022-12-12T19:40:34.419Z,14.75
2022-12-12T19:43:03.183Z,13.95
2022-12-12T19:45:32.803Z,12.90
2022-12-12T19:48:01.041Z,13.07
2022-12-12T19:50:29.194Z,12.68
2022-12-12T19:52:57.337Z,12.35
2022-12-12T19:55:25.510Z,12.60
2022-12-12T19:57:53.571Z,13.35
2022-12-12T20:00:25.971Z,13.93
2022-12-12T20:02:55.336Z,12.90
2022-12-12T20:05:23.449Z,12.80
2022-12-12T20:07:51.648Z,13.30
2022-12-12T20:10:19.943Z,14.13
2022-12-12T20:12:57.889Z,13.75
2022-12-12T20:15:26.902Z,14.85
2022-12-12T20:18:00.071Z,13.30
2022-12-12T20:20:28.719Z,15.20
2022-12-12T20:22:56.723Z,16.33
2022-12-12T20:25:25.337Z,14.25
2022-12-12T20:27:53.355Z,15.00
2022-12-12T20:30:21.592Z,14.23
2022-12-12T20:32:49.631Z,13.25
2022-12-12T20:35:19.185Z,13.75
2022-12-12T20:37:47.250Z,13.55
2022-12-12T20:40:15.604Z,13.35
2022-12-12T20:42:46.301Z,15.68
2022-12-12T20:45:18.532Z,15.63
2022-12-12T20:47:46.680Z,14.20
2022-12-12T20:50:14.804Z,14.77
2022-12-12T20:52:44.230Z,14.15
2022-12-12T20:55:12.645Z,15.57
2022-12-12T20:57:41.832Z,14.85
2022-12-12T21:00:11.570Z,14.32
2022-12-12T21:02:40.887Z,15.52
2022-12-12T21:05:09.913Z,30.55
2022-12-12T21:07:38.245Z,31.70
2022-12-12T21:10:08.513Z,29.13
2022-12-12T21:12:36.651Z,26.55
2022-12-12T21:15:05.090Z,24.08
2022-12-12T21:17:33.363Z,21.73
2022-12-12T21:20:06.371Z,19.77
2022-12-12T21:22:35.186Z,19.13
2022-12-12T21:25:03.270Z,17.08
2022-12-12T21:27:33.436Z,19.77
2022-12-12T21:30:01.843Z,18.90
2022-12-12T21:32:29.910Z,19.27
2022-12-12T21:34:58.513Z,17.17
2022-12-12T21:37:26.608Z,15.88
2022-12-12T21:39:54.875Z,15.77
2022-12-12T21:42:22.905Z,16.40
2022-12-12T21:44:52.630Z,17.98
2022-12-12T21:47:20.751Z,14.70
2022-12-12T21:49:48.748Z,17.30
2022-12-12T21:52:16.948Z,16.30
2022-12-12T21:54:46.432Z,15.77
2022-12-12T21:57:14.597Z,16.20
2022-12-12T21:59:42.879Z,14.90
2022-12-12T22:02:14.556Z,16.83
2022-12-12T22:04:42.708Z,17.13
2022-12-12T22:07:12.084Z,16.05
2022-12-12T22:09:40.365Z,15.38
2022-12-12T22:12:09.191Z,15.38
2022-12-12T22:14:37.726Z,16.00
2022-12-12T22:17:06.602Z,14.55
2022-12-12T22:19:35.996Z,14.88
2022-12-12T22:22:04.087Z,15.10
2022-12-12T22:24:32.267Z,14.32
2022-12-12T22:27:00.341Z,15.05
2022-12-12T22:29:29.001Z,14.82
2022-12-12T22:31:57.086Z,15.00
2022-12-12T22:34:26.001Z,13.68
2022-12-12T22:36:55.864Z,15.30
2022-12-12T22:39:25.861Z,15.13
2022-12-12T22:41:55.577Z,13.75
2022-12-12T22:44:25.108Z,14.38
2022-12-12T22:46:59.984Z,13.43
2022-12-12T22:49:29.173Z,14.15
2022-12-12T22:51:59.159Z,13.88
2022-12-12T22:54:27.482Z,15.30
2022-12-12T22:56:55.935Z,15.65
2022-12-12T22:59:25.180Z,15.80
2022-12-12T23:01:53.230Z,14.63
2022-12-12T23:04:21.475Z,14.65
2022-12-12T23:06:49.623Z,16.05
2022-12-12T23:09:21.928Z,15.05
2022-12-12T23:11:50.406Z,15.65
2022-12-12T23:14:21.548Z,14.07
2022-12-12T23:16:50.489Z,14.73
2022-12-12T23:19:20.759Z,15.63
2022-12-12T23:21:52.155Z,15.77
2022-12-12T23:24:21.586Z,16.25
2022-12-12T23:26:51.811Z,17.23
2022-12-12T23:29:20.307Z,16.65
2022-12-12T23:31:49.419Z,18.67
2022-12-12T23:34:20.698Z,17.70
2022-12-12T23:36:49.185Z,16.48
2022-12-12T23:39:17.353Z,18.52
2022-12-12T23:41:46.855Z,16.92
2022-12-12T23:44:16.248Z,16.98
2022-12-12T23:46:44.953Z,17.70
2022-12-12T23:49:16.736Z,16.48
2022-12-12T23:51:46.255Z,16.55
2022-12-12T23:54:17.035Z,17.75
2022-12-12T23:56:47.086Z,16.20
2022-12-12T23:59:17.823Z,16.10
